Big Piney River (Missouri), Fort Leonard Wood (06930060)

StateMissouriLatestGood (863 cfs)
RiverBig Piney RiverRatingObservedEstimated
Updated2021-02-25 9:00 (1 hour ago)Flood - The river is flooding. Obstacles can be treacherous or deadly. The river should be avoided at this stage for casual trips and definitely for the inexperienced. Trips should be attempted only with protective gear and equipment.Flood(none)3337
Discharge863 cfs (median: 498 cfs)High - The river is high and potentially dangerous, especially for the young and / or inexperienced. Normal stream obstacles are sometimes difficult to navigate. Extended distances can be attempted, but canoe travel may not be advisable.High(none)1572
Height3.39 feetGood - Conditions are ideal for a canoe or kayak. Boats typically will drag on fewer than one-quarter of riffles, if at all, and portages are unnecessary or rare. Normal float lengths can be attempted without a problem.Good(none)673
TrendSteady (rising over 24 hours)Low - River is low but can still be floated. Some riffles are okay but most come with significant dragging and might need a portage. Float lengths should be reduced to accommodate low flow, dragging, and portages.Low(none)395
USGSExternal icon USGS Site (External icon Google Maps)Poor - River is too low to float comfortably. Most or all riffles will drag or must be portaged and some obstacles (such as slick shelf rock) cause undue problems. Avoid the river at this stage for casual paddling trips.Poor(none)208

Trending Data

Plot Image

Trips for Big Piney River (Missouri), Fort Leonard Wood (06930060)

DateStartEndDistanceConditionDischargeHeightFishingDetails

A total of 0 rows are displayed.

Condition Descriptions

Fishing Conditions

Fish Species

Notes

Classic Trip List

The classic River Trips application is still available for use. It is updated with the new system using a data retrofit. It is no longer maintained. The original River Trips application is no longer updated (as of 1 Dec 2016) but can be checked for errors or for the condition of the data before it was converted to the new system.

Gauge Data Table

ObservationHeightDischargeMaximum
Discharge
Minimum
Discharge
Mean
Discharge
P05P10P20P25P50
(Median)
P75P80P90P95
2021-02-25 09:00 3.39 863 18600 (2001) 179 (2006) 2350 185 241 279 363 498 1070 1520 15000 18600
2021-02-25 08:00 3.39 863 18600 (2001) 179 (2006) 2350 185 241 279 363 498 1070 1520 15000 18600
2021-02-25 07:00 3.37 851 18600 (2001) 179 (2006) 2350 185 241 279 363 498 1070 1520 15000 18600
2021-02-25 06:00 3.36 846 18600 (2001) 179 (2006) 2350 185 241 279 363 498 1070 1520 15000 18600
2021-02-25 05:00 3.37 851 18600 (2001) 179 (2006) 2350 185 241 279 363 498 1070 1520 15000 18600
2021-02-25 04:00 3.34 834 18600 (2001) 179 (2006) 2350 185 241 279 363 498 1070 1520 15000 18600
2021-02-25 03:00 3.36 846 18600 (2001) 179 (2006) 2350 185 241 279 363 498 1070 1520 15000 18600
2021-02-25 02:00 3.32 822 18600 (2001) 179 (2006) 2350 185 241 279 363 498 1070 1520 15000 18600
2021-02-25 01:00 3.29 805 18600 (2001) 179 (2006) 2350 185 241 279 363 498 1070 1520 15000 18600
2021-02-25 00:00 3.30 811 18600 (2001) 179 (2006) 2350 185 241 279 363 498 1070 1520 15000 18600
2021-02-24 23:00 3.28 799 6440 (2018) 180 (2006) 925 185 232 289 353 471 898 966 2060 6010
2021-02-24 22:00 3.26 788 6440 (2018) 180 (2006) 925 185 232 289 353 471 898 966 2060 6010
2021-02-24 21:00 3.28 799 6440 (2018) 180 (2006) 925 185 232 289 353 471 898 966 2060 6010
2021-02-24 20:00 3.30 811 6440 (2018) 180 (2006) 925 185 232 289 353 471 898 966 2060 6010
2021-02-24 19:00 3.27 794 6440 (2018) 180 (2006) 925 185 232 289 353 471 898 966 2060 6010
2021-02-24 18:00 3.28 799 6440 (2018) 180 (2006) 925 185 232 289 353 471 898 966 2060 6010
2021-02-24 17:00 3.26 788 6440 (2018) 180 (2006) 925 185 232 289 353 471 898 966 2060 6010
2021-02-24 16:00 3.29 805 6440 (2018) 180 (2006) 925 185 232 289 353 471 898 966 2060 6010
2021-02-24 15:00 3.29 805 6440 (2018) 180 (2006) 925 185 232 289 353 471 898 966 2060 6010
2021-02-24 14:00 3.31 817 6440 (2018) 180 (2006) 925 185 232 289 353 471 898 966 2060 6010
2021-02-24 13:00 3.30 811 6440 (2018) 180 (2006) 925 185 232 289 353 471 898 966 2060 6010
2021-02-24 12:00 3.36 846 6440 (2018) 180 (2006) 925 185 232 289 353 471 898 966 2060 6010
2021-02-24 11:00 3.32 822 6440 (2018) 180 (2006) 925 185 232 289 353 471 898 966 2060 6010
2021-02-24 10:00 3.32 822 6440 (2018) 180 (2006) 925 185 232 289 353 471 898 966 2060 6010
2021-02-24 09:00 3.34 834 6440 (2018) 180 (2006) 925 185 232 289 353 471 898 966 2060 6010
2021-02-24 08:00 3.34 834 6440 (2018) 180 (2006) 925 185 232 289 353 471 898 966 2060 6010
2021-02-24 07:00 3.32 822 6440 (2018) 180 (2006) 925 185 232 289 353 471 898 966 2060 6010
2021-02-24 06:00 3.31 817 6440 (2018) 180 (2006) 925 185 232 289 353 471 898 966 2060 6010
2021-02-24 05:00 3.25 783 6440 (2018) 180 (2006) 925 185 232 289 353 471 898 966 2060 6010
2021-02-24 04:00 3.18 744 6440 (2018) 180 (2006) 925 185 232 289 353 471 898 966 2060 6010
2021-02-24 03:00 3.13 718 6440 (2018) 180 (2006) 925 185 232 289 353 471 898 966 2060 6010
2021-02-24 02:00 3.06 682 6440 (2018) 180 (2006) 925 185 232 289 353 471 898 966 2060 6010
2021-02-24 01:00 2.96 633 6440 (2018) 180 (2006) 925 185 232 289 353 471 898 966 2060 6010
2021-02-24 00:00 2.84 578 6440 (2018) 180 (2006) 925 185 232 289 353 471 898 966 2060 6010

A total of 34 rows are displayed for years 2000 through 2020.